Time;durP1;ratioP1;P1;durP2;ratioP2;P2;SDS_P1;SDS_P2;PMS_P1;PMS_P2;Temp;Humidity;BMP_temperature;BMP_pressure;BME280_temperature;BME280_humidity;BME280_pressure;Samples;Min_cycle;Max_cycle;Signal;HPM_P1;HPM_P2
2024/03/24 00:03:13;;;;;;;1.50;0.32;;;3.60;99.90;;;;;;8307694;28;20030;-86
2024/03/24 00:07:22;;;;;;;0.40;0.40;;;3.50;99.90;;;;;;8299372;28;20116;-85
2024/03/24 00:11:25;;;;;;;1.07;0.47;;;3.70;99.90;;;;;;8284832;28;20030;-87
2024/03/24 00:15:28;;;;;;;0.45;0.43;;;3.60;99.90;;;;;;8285267;28;20026;-86
2024/03/24 00:19:29;;;;;;;0.80;0.50;;;3.60;99.90;;;;;;8277923;28;20041;-86
2024/03/24 00:23:32;;;;;;;1.52;0.73;;;3.60;99.90;;;;;;8302741;28;20034;-86
2024/03/24 00:27:39;;;;;;;1.02;0.52;;;3.60;99.90;;;;;;8284465;28;20499;-85
2024/03/24 00:31:40;;;;;;;1.00;0.60;;;3.30;99.90;;;;;;8308712;28;20019;-86
2024/03/24 00:35:40;;;;;;;1.15;0.60;;;3.60;99.90;;;;;;8302853;28;20028;-85
2024/03/24 00:39:48;;;;;;;1.60;0.63;;;3.40;99.90;;;;;;8303263;28;20626;-86
2024/03/24 00:44:11;;;;;;;0.70;0.40;;;3.40;99.90;;;;;;8282184;28;20046;-86
2024/03/24 00:48:15;;;;;;;0.43;0.35;;;3.50;99.90;;;;;;8295160;28;20561;-85
2024/03/24 00:52:18;;;;;;;0.63;0.40;;;3.50;99.90;;;;;;8285499;28;20026;-85
2024/03/24 00:56:19;;;;;;;0.40;0.40;;;3.40;99.90;;;;;;8300349;28;20069;-85
2024/03/24 01:00:36;;;;;;;0.17;0.13;;;3.40;99.90;;;;;;8315310;28;20045;-86
2024/03/24 01:04:37;;;;;;;0.50;0.43;;;3.20;99.90;;;;;;8303771;28;20486;-85
2024/03/24 01:08:38;;;;;;;0.65;0.50;;;3.30;99.90;;;;;;8309828;28;20144;-85
2024/03/24 01:13:02;;;;;;;0.80;0.60;;;3.30;99.90;;;;;;8298144;28;20129;-85
2024/03/24 01:17:11;;;;;;;1.38;0.45;;;3.20;99.90;;;;;;8295631;28;20400;-86
2024/03/24 01:21:12;;;;;;;0.55;0.55;;;3.20;99.90;;;;;;8284465;28;20482;-86
2024/03/24 01:25:13;;;;;;;0.52;0.50;;;3.20;99.90;;;;;;8303176;28;20368;-86
2024/03/24 01:29:13;;;;;;;0.40;0.40;;;3.00;99.90;;;;;;8302319;28;20034;-86
2024/03/24 01:33:17;;;;;;;0.82;0.50;;;3.10;99.90;;;;;;8302624;28;20021;-86
2024/03/24 01:37:17;;;;;;;0.52;0.30;;;3.20;99.90;;;;;;8308680;28;20067;-85
2024/03/24 01:41:21;;;;;;;1.55;0.68;;;3.20;99.90;;;;;;8302781;28;20545;-85
2024/03/24 01:45:22;;;;;;;4.63;0.82;;;3.20;99.90;;;;;;8293421;28;20577;-86
2024/03/24 01:49:30;;;;;;;2.28;0.63;;;3.30;99.90;;;;;;8295578;28;20022;-86
2024/03/24 01:53:31;;;;;;;0.40;0.38;;;3.20;99.90;;;;;;8278636;28;20026;-85
2024/03/24 01:58:01;;;;;;;2.17;0.50;;;3.30;99.90;;;;;;8294181;28;20113;-85
2024/03/24 02:02:02;;;;;;;0.65;0.40;;;3.30;99.90;;;;;;8270395;28;20109;-85
2024/03/24 02:06:33;;;;;;;1.67;0.60;;;3.40;99.90;;;;;;8289067;28;20037;-86
2024/03/24 02:10:36;;;;;;;0.70;0.40;;;3.30;99.90;;;;;;8270118;28;20029;-86
2024/03/24 02:14:45;;;;;;;0.52;0.45;;;3.40;99.90;;;;;;8292030;28;20068;-87
2024/03/24 02:19:27;;;;;;;0.52;0.35;;;3.40;99.90;;;;;;8280578;28;20034;-86
2024/03/24 02:23:58;;;;;;;3.05;0.38;;;3.80;99.90;;;;;;8181064;29;20059;-85
2024/03/24 02:28:05;;;;;;;0.35;0.35;;;3.40;99.90;;;;;;8166117;28;20039;-86
2024/03/24 02:32:07;;;;;;;0.50;0.50;;;3.40;99.90;;;;;;8173042;28;20164;-86
2024/03/24 02:36:15;;;;;;;1.85;1.00;;;3.50;99.90;;;;;;8288979;28;20030;-86
2024/03/24 02:40:31;;;;;;;3.67;0.73;;;3.40;99.90;;;;;;8296967;28;20073;-86
2024/03/24 02:44:53;;;;;;;3.47;0.32;;;3.30;99.90;;;;;;8293230;28;20029;-86
2024/03/24 02:48:55;;;;;;;1.33;0.70;;;3.40;99.90;;;;;;8274822;28;20112;-85
2024/03/24 02:53:05;;;;;;;0.43;0.43;;;3.20;99.90;;;;;;8277537;28;20014;-86
2024/03/24 02:57:08;;;;;;;2.90;0.70;;;3.30;99.90;;;;;;8294342;28;20109;-86
2024/03/24 03:01:09;;;;;;;1.27;0.57;;;3.20;99.90;;;;;;8278244;28;20116;-85
2024/03/24 03:05:10;;;;;;;1.00;0.90;;;3.30;99.90;;;;;;8295487;28;20049;-86
2024/03/24 03:09:16;;;;;;;0.50;0.50;;;3.30;99.90;;;;;;8307306;28;20628;-86
2024/03/24 03:13:20;;;;;;;5.13;0.55;;;3.30;99.90;;;;;;8295933;28;20490;-86
2024/03/24 03:17:31;;;;;;;0.80;0.40;;;3.30;99.90;;;;;;8279550;28;20536;-85
2024/03/24 03:22:23;;;;;;;;;;;;;;;;;;;;;
2024/03/24 03:26:26;;;;;;;0.43;0.40;;;3.40;99.90;;;;;;8293150;28;20042;-85
2024/03/24 03:35:44;;;;;;;0.77;0.45;;;3.30;99.90;;;;;;8135381;29;20161;-86
2024/03/24 03:40:15;;;;;;;0.43;0.43;;;3.30;99.90;;;;;;8281829;22;20076;-85
2024/03/24 03:44:41;;;;;;;3.60;1.02;;;3.40;99.90;;;;;;8300577;28;20026;-85
2024/03/24 03:49:02;;;;;;;2.05;0.70;;;3.40;99.90;;;;;;8304954;28;20041;-86
2024/03/24 03:53:22;;;;;;;0.20;0.20;;;3.40;99.90;;;;;;8307507;28;20052;-86
2024/03/24 03:57:22;;;;;;;0.40;0.32;;;3.40;99.90;;;;;;8290185;28;20040;-85
2024/03/24 04:01:26;;;;;;;0.43;0.43;;;3.30;99.90;;;;;;8286295;28;20030;-84
2024/03/24 04:05:26;;;;;;;0.30;0.30;;;3.30;99.90;;;;;;8293317;28;20478;-84
2024/03/24 04:09:39;;;;;;;0.30;0.30;;;3.30;99.90;;;;;;8306673;28;20117;-85
2024/03/24 04:13:40;;;;;;;0.10;0.10;;;2.90;99.90;;;;;;8305552;28;20402;-85
2024/03/24 04:17:41;;;;;;;0.70;0.40;;;2.70;99.90;;;;;;8307981;28;20025;-87
2024/03/24 04:21:54;;;;;;;0.10;0.10;;;2.70;99.90;;;;;;8318835;28;20072;-86
2024/03/24 04:26:02;;;;;;;0.30;0.30;;;2.70;99.90;;;;;;8302347;28;20025;-87
2024/03/24 04:35:20;;;;;;;0.65;0.50;;;2.50;99.90;;;;;;8299569;28;20045;-87
2024/03/24 04:40:11;;;;;;;0.40;0.40;;;2.50;99.90;;;;;;8307151;28;20033;-87
2024/03/24 04:44:27;;;;;;;;;;;2.40;99.90;;;;;;8283176;28;20074;-88
2024/03/24 04:48:58;;;;;;;2.20;0.30;;;2.40;99.90;;;;;;8303297;28;19917;-87
2024/03/24 04:53:03;;;;;;;;;;;2.30;99.90;;;;;;8301375;28;20018;-87
2024/03/24 04:57:45;;;;;;;0.45;0.45;;;2.50;99.90;;;;;;8311202;28;19916;-88
2024/03/24 05:02:05;;;;;;;0.40;0.30;;;2.30;99.90;;;;;;8307408;28;20065;-88
2024/03/24 05:11:32;;;;;;;0.40;0.40;;;2.50;99.90;;;;;;8304126;28;20030;-88
2024/03/24 05:15:33;;;;;;;0.30;0.20;;;2.50;99.90;;;;;;8216618;28;20157;-87
2024/03/24 05:20:08;;;;;;;0.40;0.32;;;2.70;99.90;;;;;;8220678;28;20039;-88
2024/03/24 05:24:37;;;;;;;0.57;0.50;;;2.70;99.90;;;;;;8217588;28;20049;-88
2024/03/24 05:28:45;;;;;;;0.50;0.40;;;2.80;99.90;;;;;;8232798;28;20041;-88
2024/03/24 05:33:04;;;;;;;0.47;0.47;;;2.70;99.90;;;;;;8268741;28;20151;-88
2024/03/24 05:58:08;;;;;;;0.30;0.30;;;3.10;99.90;;;;;;8081003;29;20261;-87
2024/03/24 06:02:20;;;;;;;0.45;0.45;;;3.20;99.90;;;;;;8291655;28;20060;-87
2024/03/24 06:06:28;;;;;;;1.27;0.85;;;3.40;99.90;;;;;;8294255;28;20080;-87
2024/03/24 06:10:49;;;;;;;1.45;0.60;;;3.40;99.90;;;;;;8306685;28;20119;-87
2024/03/24 06:15:06;;;;;;;1.33;0.73;;;3.50;99.90;;;;;;8322409;28;20376;-87
2024/03/24 06:19:15;;;;;;;0.93;0.75;;;3.60;99.90;;;;;;8310538;28;20029;-86
2024/03/24 06:23:25;;;;;;;0.57;0.57;;;3.50;99.90;;;;;;8297858;28;20121;-86
2024/03/24 06:27:41;;;;;;;;;;;;;;;;;;;;;
2024/03/24 06:32:00;;;;;;;2.05;0.90;;;3.60;99.90;;;;;;8302339;28;20036;-86
2024/03/24 06:36:16;;;;;;;1.45;0.80;;;3.50;99.90;;;;;;8315929;28;20111;-87
2024/03/24 06:40:39;;;;;;;1.42;0.80;;;3.50;99.90;;;;;;8294980;28;20030;-87
2024/03/24 06:44:50;;;;;;;0.65;0.60;;;3.60;99.90;;;;;;8306657;28;20046;-87
2024/03/24 06:49:30;;;;;;;1.45;0.80;;;3.80;99.90;;;;;;8303672;28;20035;-86
2024/03/24 06:54:17;;;;;;;1.33;0.57;;;3.80;99.90;;;;;;8313465;28;20042;-86
2024/03/24 07:08:19;;;;;;;0.55;0.45;;;3.50;99.90;;;;;;8214299;28;20093;-84
2024/03/24 07:12:55;;;;;;;0.00;0.00;;;3.00;99.90;;;;;;8221278;28;20042;-83
2024/03/24 07:16:56;;;;;;;2.85;1.63;;;2.40;99.90;;;;;;8298346;28;20109;-83
2024/03/24 07:21:10;;;;;;;1.25;0.60;;;2.20;99.90;;;;;;8293904;28;20087;-84
2024/03/24 07:25:12;;;;;;;0.15;0.13;;;2.60;99.90;;;;;;8322096;28;20037;-82
2024/03/24 07:29:13;;;;;;;0.30;0.30;;;2.40;99.90;;;;;;8300152;28;20034;-83
2024/03/24 07:33:16;;;;;;;0.65;0.43;;;2.10;99.90;;;;;;8320732;28;20049;-83
2024/03/24 07:37:17;;;;;;;0.10;0.10;;;2.50;99.90;;;;;;8308294;28;20490;-85
2024/03/24 07:41:17;;;;;;;0.35;0.32;;;2.30;99.90;;;;;;8294904;28;20029;-85
2024/03/24 07:45:18;;;;;;;0.30;0.30;;;2.40;99.90;;;;;;8312633;28;20129;-85
2024/03/24 07:49:18;;;;;;;0.68;0.40;;;2.50;99.90;;;;;;8299290;28;20060;-85
2024/03/24 07:53:19;;;;;;;0.20;0.20;;;2.50;99.90;;;;;;8303753;28;20053;-86
2024/03/24 07:57:19;;;;;;;0.30;0.30;;;2.40;99.90;;;;;;8305031;28;20030;-86
2024/03/24 08:01:20;;;;;;;1.73;0.40;;;2.60;99.90;;;;;;8310094;28;20022;-86
2024/03/24 08:05:21;;;;;;;3.15;0.30;;;2.60;99.90;;;;;;8306811;28;20049;-85
2024/03/24 08:09:21;;;;;;;0.10;0.10;;;2.80;99.90;;;;;;8295740;28;20030;-87
2024/03/24 08:13:22;;;;;;;0.10;0.10;;;3.10;99.90;;;;;;8323802;28;20030;-86
2024/03/24 08:17:23;;;;;;;0.52;0.52;;;3.40;99.90;;;;;;8301091;28;20108;-87
2024/03/24 08:21:26;;;;;;;0.68;0.57;;;3.60;99.90;;;;;;8321364;28;20029;-86
2024/03/24 08:25:26;;;;;;;0.10;0.10;;;3.60;99.90;;;;;;8290913;28;20254;-88
2024/03/24 08:29:27;;;;;;;0.47;0.25;;;4.00;99.90;;;;;;8319689;28;20153;-88
2024/03/24 08:33:27;;;;;;;0.80;0.50;;;4.80;99.90;;;;;;8313377;28;20037;-87
2024/03/24 08:37:28;;;;;;;0.70;0.43;;;5.10;99.90;;;;;;8306150;28;20057;-86
2024/03/24 08:41:29;;;;;;;0.30;0.30;;;5.50;99.90;;;;;;8294750;28;20033;-87
2024/03/24 08:45:30;;;;;;;2.35;0.75;;;5.60;99.90;;;;;;8313938;28;20029;-88
2024/03/24 08:49:55;;;;;;;0.13;0.13;;;5.80;99.90;;;;;;8290965;28;20110;-87
2024/03/24 08:54:08;;;;;;;1.15;0.30;;;5.90;99.90;;;;;;8294966;28;20422;-87
2024/03/24 08:58:46;;;;;;;2.45;0.40;;;6.00;99.90;;;;;;8292062;28;20030;-87
2024/03/24 09:03:03;;;;;;;0.28;0.20;;;5.90;99.90;;;;;;8293514;28;20018;-87
2024/03/24 09:07:22;;;;;;;2.90;0.43;;;5.80;99.90;;;;;;8296094;28;20041;-88
2024/03/24 09:11:23;;;;;;;2.42;0.45;;;5.90;99.90;;;;;;8291511;28;20050;-88
2024/03/24 09:15:32;;;;;;;1.75;0.45;;;6.30;99.90;;;;;;8305036;28;20037;-89
2024/03/24 09:19:49;;;;;;;;;;;;;;;;;;;;;
2024/03/24 09:23:58;;;;;;;0.20;0.20;;;6.60;99.90;;;;;;8296168;28;20494;-89
2024/03/24 09:27:59;;;;;;;0.30;0.30;;;6.40;99.90;;;;;;8297639;28;20025;-87
2024/03/24 09:36:56;;;;;;;1.00;0.50;;;6.60;99.90;;;;;;8219326;28;20030;-87
2024/03/24 09:46:34;;;;;;;;;;;;;;;;;;;;;
2024/03/24 09:50:40;;;;;;;0.45;0.45;;;8.00;99.90;;;;;;8265564;28;20037;-87
2024/03/24 09:54:54;;;;;;;1.05;0.30;;;7.30;99.90;;;;;;8317693;28;20045;-87
2024/03/24 09:59:24;;;;;;;0.10;0.10;;;7.00;99.90;;;;;;8300309;28;20029;-87
2024/03/24 10:03:36;;;;;;;0.10;0.10;;;6.50;99.90;;;;;;8297333;28;20036;-87
2024/03/24 10:08:13;;;;;;;0.22;0.22;;;6.40;99.90;;;;;;8290199;28;20464;-87
2024/03/24 10:12:31;;;;;;;0.20;0.20;;;7.60;99.90;;;;;;8292288;28;20513;-88
2024/03/24 10:16:35;;;;;;;1.17;0.65;;;7.70;99.90;;;;;;8293524;28;20038;-87
2024/03/24 10:20:38;;;;;;;1.10;0.50;;;7.50;99.90;;;;;;8321636;28;20056;-86
2024/03/24 10:24:48;;;;;;;0.13;0.10;;;7.70;99.90;;;;;;8330859;28;20037;-84
2024/03/24 10:28:49;;;;;;;;;;;8.50;99.90;;;;;;8299995;28;20060;-87
2024/03/24 10:33:28;;;;;;;0.28;0.25;;;8.50;99.90;;;;;;8304131;28;19909;-87
2024/03/24 10:37:49;;;;;;;0.95;0.40;;;8.80;99.90;;;;;;8301407;28;20038;-86
2024/03/24 10:42:05;;;;;;;0.40;0.38;;;8.80;99.90;;;;;;8294063;28;20057;-88
2024/03/24 10:46:08;;;;;;;1.58;0.90;;;9.00;99.90;;;;;;8318576;28;20109;-87
2024/03/24 10:50:25;;;;;;;0.50;0.30;;;9.00;99.90;;;;;;8301317;28;20049;-87
2024/03/24 10:59:41;;;;;;;0.60;0.30;;;9.50;99.90;;;;;;8242486;28;20058;-88
2024/03/24 11:03:45;;;;;;;0.55;0.50;;;10.70;99.90;;;;;;8248197;28;20054;-87
2024/03/24 11:07:46;;;;;;;0.52;0.30;;;10.00;99.90;;;;;;8236878;28;20684;-87
2024/03/24 11:12:20;;;;;;;0.82;0.57;;;8.60;99.90;;;;;;8319187;28;20046;-88
2024/03/24 11:16:29;;;;;;;0.35;0.32;;;9.20;99.90;;;;;;8328956;28;20506;-87
2024/03/24 11:21:06;;;;;;;1.50;0.75;;;8.50;99.90;;;;;;8318805;28;20083;-87
2024/03/24 11:25:07;;;;;;;1.13;0.40;;;7.70;99.90;;;;;;8223649;28;20088;-87
2024/03/24 11:29:24;;;;;;;1.75;0.77;;;7.40;99.90;;;;;;8240321;28;20034;-86
2024/03/24 11:33:36;;;;;;;0.65;0.50;;;7.00;99.90;;;;;;8250131;28;20109;-87
2024/03/24 11:37:41;;;;;;;1.85;0.82;;;6.60;99.90;;;;;;8300471;28;20034;-87
2024/03/24 11:41:52;;;;;;;1.65;0.65;;;6.50;99.90;;;;;;8300528;28;21423;-86
2024/03/24 11:46:15;;;;;;;1.55;0.70;;;7.20;99.90;;;;;;8315392;28;20027;-88
2024/03/24 11:50:28;;;;;;;0.50;0.40;;;7.70;99.90;;;;;;8302909;28;20041;-86
2024/03/24 11:55:07;;;;;;;;;;;;;;;;;;;;;
2024/03/24 11:59:42;;;;;;;2.58;0.70;;;8.80;99.90;;;;;;8299263;28;20030;-87
2024/03/24 12:09:02;;;;;;;1.55;0.70;;;10.70;99.90;;;;;;8299667;28;20121;-86
2024/03/24 12:13:17;;;;;;;1.35;0.60;;;10.30;99.90;;;;;;8304612;28;20030;-85
2024/03/24 12:17:21;;;;;;;0.60;0.50;;;10.10;99.90;;;;;;8307154;28;20140;-83
2024/03/24 12:21:23;;;;;;;0.95;0.65;;;9.70;99.90;;;;;;8305482;28;20136;-85
2024/03/24 12:25:24;;;;;;;2.33;0.75;;;9.00;99.90;;;;;;8304371;28;20037;-85
2024/03/24 12:29:24;;;;;;;1.38;0.40;;;9.10;99.90;;;;;;8333518;28;20034;-85
2024/03/24 12:33:26;;;;;;;1.38;0.40;;;8.80;99.90;;;;;;8318354;28;20461;-85
2024/03/24 12:37:28;;;;;;;2.05;0.70;;;8.80;99.90;;;;;;8310211;28;20459;-85
2024/03/24 12:41:28;;;;;;;4.03;1.02;;;9.40;99.90;;;;;;8303607;28;20029;-86
2024/03/24 12:45:29;;;;;;;0.95;0.60;;;9.50;99.90;;;;;;8298798;28;20079;-84
2024/03/24 12:49:31;;;;;;;0.55;0.50;;;9.50;99.90;;;;;;8320724;28;20514;-85
2024/03/24 12:53:53;;;;;;;3.60;0.77;;;10.20;99.90;;;;;;8307481;28;20494;-86
2024/03/24 12:57:55;;;;;;;1.30;0.45;;;10.90;99.90;;;;;;8319683;28;20084;-84
2024/03/24 13:01:56;;;;;;;1.23;0.60;;;10.70;99.90;;;;;;8302833;28;20029;-86
2024/03/24 13:05:59;;;;;;;0.73;0.40;;;9.40;99.90;;;;;;8326127;28;20498;-85
2024/03/24 13:10:02;;;;;;;1.23;0.68;;;8.50;99.90;;;;;;8302978;28;20421;-85
2024/03/24 13:14:04;;;;;;;0.65;0.55;;;8.10;99.90;;;;;;8321101;28;20030;-86
2024/03/24 13:18:14;;;;;;;6.20;0.55;;;8.40;99.90;;;;;;8319406;28;20053;-85
2024/03/24 13:22:15;;;;;;;3.08;1.10;;;9.40;99.90;;;;;;8301097;28;20069;-86
2024/03/24 13:26:21;;;;;;;0.77;0.45;;;9.60;99.90;;;;;;8314859;28;20498;-88
2024/03/24 13:30:28;;;;;;;0.55;0.40;;;9.40;99.90;;;;;;8307512;28;20030;-89
2024/03/24 13:40:05;;;;;;;0.40;0.38;;;10.00;99.90;;;;;;8236149;28;20117;-89
2024/03/24 13:44:47;;;;;;;0.32;0.30;;;10.30;99.90;;;;;;8311468;28;20034;-88
2024/03/24 13:48:48;;;;;;;0.30;0.28;;;10.30;99.90;;;;;;8300693;28;20044;-88
2024/03/24 13:53:33;;;;;;;1.33;0.50;;;9.50;99.90;;;;;;8296219;28;20392;-89
2024/03/24 13:58:05;;;;;;;;;;;;;;;;;;;;;
2024/03/24 14:02:41;;;;;;;0.85;0.50;;;8.80;99.90;;;;;;8304485;28;20383;-88
2024/03/24 14:06:41;;;;;;;0.40;0.40;;;8.20;99.90;;;;;;8297738;28;20022;-88
2024/03/24 14:10:42;;;;;;;0.25;0.25;;;8.40;99.90;;;;;;8299561;28;20460;-89
2024/03/24 14:14:59;;;;;;;0.93;0.43;;;8.40;99.90;;;;;;8301468;28;20018;-89
2024/03/24 14:19:24;;;;;;;0.40;0.28;;;8.20;99.90;;;;;;8304988;28;20026;-88
2024/03/24 14:23:46;;;;;;;0.88;0.45;;;7.70;99.90;;;;;;8304165;28;20466;-89
2024/03/24 14:27:53;;;;;;;0.73;0.40;;;7.60;99.90;;;;;;8308241;28;20029;-89
2024/03/24 14:32:35;;;;;;;1.45;0.40;;;7.60;99.90;;;;;;8302875;28;20110;-89
2024/03/24 14:37:14;;;;;;;4.65;0.40;;;7.70;99.90;;;;;;8301534;28;20049;-90
2024/03/24 14:41:53;;;;;;;0.57;0.52;;;8.60;99.90;;;;;;8237234;28;20057;-88
2024/03/24 14:46:30;;;;;;;0.35;0.30;;;10.20;99.90;;;;;;8290821;28;20413;-88
2024/03/24 14:50:41;;;;;;;1.08;0.40;;;11.00;99.90;;;;;;8297112;28;20048;-89
2024/03/24 14:54:54;;;;;;;0.38;0.28;;;10.40;99.90;;;;;;8296453;28;20539;-89
2024/03/24 14:59:31;;;;;;;1.42;0.40;;;9.60;99.90;;;;;;8307514;28;20043;-88
2024/03/24 15:03:56;;;;;;;0.52;0.40;;;9.30;99.90;;;;;;8294575;28;20791;-88
2024/03/24 15:08:21;;;;;;;1.88;0.40;;;8.90;99.90;;;;;;8292748;28;20018;-89
2024/03/24 15:12:54;;;;;;;0.30;0.30;;;8.70;99.90;;;;;;8293661;28;20025;-88
2024/03/24 15:17:30;;;;;;;;;;;;;;;;;;;;;
2024/03/24 15:21:50;;;;;;;0.75;0.40;;;8.30;99.90;;;;;;8301262;28;20296;-89
2024/03/24 15:25:54;;;;;;;2.13;0.37;;;8.40;99.90;;;;;;8291439;28;20503;-89
2024/03/24 15:30:39;;;;;;;0.65;0.40;;;8.50;99.90;;;;;;8295679;28;20438;-89
2024/03/24 15:34:54;;;;;;;0.30;0.30;;;8.30;99.90;;;;;;8280476;28;20061;-89
2024/03/24 15:39:38;;;;;;;0.85;0.50;;;8.20;99.90;;;;;;8315567;28;20466;-89
2024/03/24 15:43:49;;;;;;;0.85;0.30;;;8.20;99.90;;;;;;8281068;28;20129;-88
2024/03/24 15:48:44;;;;;;;0.40;0.40;;;8.20;99.90;;;;;;8298379;28;20104;-89
2024/03/24 15:53:31;;;;;;;1.20;0.32;;;8.20;99.90;;;;;;8275772;28;20030;-88
2024/03/24 15:58:15;;;;;;;1.02;0.52;;;8.30;99.90;;;;;;8293921;28;20022;-88
2024/03/24 16:02:54;;;;;;;2.83;0.40;;;8.30;99.90;;;;;;8293815;28;20026;-88
2024/03/24 16:07:32;;;;;;;0.50;0.30;;;7.90;99.90;;;;;;8314701;28;20048;-90
2024/03/24 16:11:34;;;;;;;0.90;0.50;;;7.70;99.90;;;;;;8228943;28;20555;-87
2024/03/24 16:15:35;;;;;;;0.85;0.30;;;7.80;99.90;;;;;;8214831;28;20129;-88
2024/03/24 16:19:36;;;;;;;0.65;0.47;;;7.60;99.90;;;;;;8228799;28;20491;-89
2024/03/24 16:23:42;;;;;;;2.60;0.43;;;7.40;99.90;;;;;;8304651;28;20033;-90
2024/03/24 16:27:49;;;;;;;0.73;0.30;;;7.20;99.90;;;;;;8291059;28;20029;-88
2024/03/24 16:31:56;;;;;;;1.15;0.20;;;7.00;99.90;;;;;;8296080;28;20508;-90
2024/03/24 16:36:12;;;;;;;8.98;0.52;;;6.80;99.90;;;;;;8309018;28;20030;-90
2024/03/24 16:40:16;;;;;;;0.63;0.45;;;6.80;99.90;;;;;;8314186;28;20034;-86
2024/03/24 16:44:16;;;;;;;0.38;0.30;;;6.50;99.90;;;;;;8286961;28;20113;-88
2024/03/24 16:48:17;;;;;;;2.75;1.17;;;6.20;99.90;;;;;;8302788;28;20022;-85
2024/03/24 16:52:24;;;;;;;1.30;0.50;;;5.70;99.90;;;;;;8298488;28;20112;-86
2024/03/24 16:56:27;;;;;;;0.10;0.10;;;5.40;99.90;;;;;;8297799;28;20041;-86
2024/03/24 17:00:28;;;;;;;0.43;0.30;;;5.20;99.90;;;;;;8319184;28;20028;-85
2024/03/24 17:04:29;;;;;;;0.38;0.38;;;5.00;99.90;;;;;;8318862;28;20018;-85
2024/03/24 17:08:30;;;;;;;1.23;0.40;;;4.70;99.90;;;;;;8313376;28;20030;-85
2024/03/24 17:12:30;;;;;;;0.85;0.38;;;4.60;99.90;;;;;;8308997;28;20034;-86
2024/03/24 17:16:33;;;;;;;0.20;0.20;;;4.50;99.90;;;;;;8309753;28;20516;-86
2024/03/24 17:20:34;;;;;;;1.70;0.22;;;4.30;99.90;;;;;;8294077;28;20076;-84
2024/03/24 17:24:34;;;;;;;0.70;0.50;;;4.00;99.90;;;;;;8296063;28;20491;-86
2024/03/24 17:28:35;;;;;;;0.47;0.43;;;3.90;99.90;;;;;;8295322;28;20025;-87
2024/03/24 17:32:36;;;;;;;3.30;0.60;;;3.70;99.90;;;;;;8291260;28;20513;-86
2024/03/24 17:36:36;;;;;;;3.42;0.80;;;3.60;99.90;;;;;;8312449;28;20030;-86
2024/03/24 17:40:37;;;;;;;0.88;0.38;;;3.60;99.90;;;;;;8308452;28;20522;-86
2024/03/24 17:44:38;;;;;;;1.58;0.70;;;3.50;99.90;;;;;;8291216;28;20037;-86
2024/03/24 17:48:38;;;;;;;0.65;0.40;;;3.60;99.90;;;;;;8291618;28;20472;-86
2024/03/24 17:52:39;;;;;;;0.17;0.10;;;3.80;99.90;;;;;;8291883;28;20147;-86
2024/03/24 17:56:39;;;;;;;1.38;0.90;;;3.90;99.90;;;;;;8306788;28;20034;-86
2024/03/24 18:00:40;;;;;;;0.75;0.50;;;3.80;99.90;;;;;;8302608;28;20030;-86
2024/03/24 18:04:40;;;;;;;0.80;0.50;;;3.80;99.90;;;;;;8297954;28;20123;-86
2024/03/24 18:13:00;;;;;;;0.20;0.20;;;3.60;99.90;;;;;;8293395;28;20045;-84
2024/03/24 18:17:01;;;;;;;0.93;0.50;;;3.60;99.90;;;;;;8296561;28;20048;-85
2024/03/24 18:21:04;;;;;;;2.22;1.02;;;3.30;99.90;;;;;;8305353;28;20037;-86
2024/03/24 18:25:05;;;;;;;0.52;0.50;;;3.00;99.90;;;;;;8300759;28;20022;-86
2024/03/24 18:29:06;;;;;;;2.90;0.50;;;3.00;99.90;;;;;;8300396;28;20076;-84
2024/03/24 18:33:07;;;;;;;1.75;0.50;;;3.10;99.90;;;;;;8299815;28;20105;-84
2024/03/24 18:37:11;;;;;;;2.65;0.75;;;3.20;99.90;;;;;;8303878;28;20030;-84
2024/03/24 18:41:14;;;;;;;0.98;0.52;;;3.30;99.90;;;;;;8292297;28;20042;-82
2024/03/24 18:45:15;;;;;;;1.08;0.77;;;3.50;99.90;;;;;;8289692;28;20022;-85
2024/03/24 18:49:16;;;;;;;2.17;1.05;;;3.80;99.90;;;;;;8296358;28;20096;-84
2024/03/24 18:53:16;;;;;;;2.00;1.25;;;3.80;99.90;;;;;;8292761;28;20022;-84
2024/03/24 18:57:17;;;;;;;1.33;0.77;;;3.90;99.90;;;;;;8316697;28;20037;-85
2024/03/24 19:01:18;;;;;;;0.98;0.85;;;4.00;99.90;;;;;;8296779;28;20025;-85
2024/03/24 19:05:18;;;;;;;3.75;0.93;;;4.20;99.90;;;;;;8294493;28;20034;-85
2024/03/24 19:09:19;;;;;;;0.30;0.30;;;4.30;99.90;;;;;;8304758;28;20040;-84
2024/03/24 19:13:20;;;;;;;1.05;0.47;;;4.50;99.90;;;;;;8309399;28;20556;-84
2024/03/24 19:17:20;;;;;;;0.90;0.68;;;4.50;99.90;;;;;;8306801;28;20030;-85
2024/03/24 19:21:21;;;;;;;1.10;0.40;;;4.40;99.90;;;;;;8307478;28;20092;-86
2024/03/24 19:25:21;;;;;;;0.43;0.40;;;4.20;99.90;;;;;;8327181;28;20037;-85
2024/03/24 19:29:22;;;;;;;2.13;0.88;;;4.10;99.90;;;;;;8305727;28;20836;-85
2024/03/24 19:33:23;;;;;;;1.40;0.40;;;4.10;99.90;;;;;;8305231;28;20036;-85
2024/03/24 19:37:25;;;;;;;1.70;0.35;;;4.00;99.90;;;;;;8311759;28;20022;-85
2024/03/24 19:41:25;;;;;;;0.93;0.40;;;4.00;99.90;;;;;;8348843;28;20025;-86
2024/03/24 19:45:26;;;;;;;1.85;0.40;;;3.80;99.90;;;;;;8346818;28;20029;-86
2024/03/24 19:49:26;;;;;;;1.65;0.50;;;3.60;99.90;;;;;;8327155;28;20037;-86
2024/03/24 19:53:27;;;;;;;1.17;0.60;;;3.50;99.90;;;;;;8321968;28;20049;-86
2024/03/24 19:57:28;;;;;;;1.80;0.60;;;3.40;99.90;;;;;;8327403;28;20026;-85
2024/03/24 20:01:28;;;;;;;0.38;0.38;;;3.20;99.90;;;;;;8325101;28;20025;-85
2024/03/24 20:05:29;;;;;;;1.25;0.60;;;3.00;99.90;;;;;;8307662;28;20658;-86
2024/03/24 20:09:29;;;;;;;1.15;0.50;;;2.70;99.90;;;;;;8309258;28;20025;-85
2024/03/24 20:13:31;;;;;;;0.85;0.50;;;2.50;99.90;;;;;;8316916;28;20056;-85
2024/03/24 20:17:32;;;;;;;0.73;0.30;;;2.50;99.90;;;;;;8325143;28;20053;-85
2024/03/24 20:21:32;;;;;;;1.15;0.60;;;2.70;99.90;;;;;;8310757;28;20034;-85
2024/03/24 20:25:33;;;;;;;1.63;0.60;;;2.60;99.90;;;;;;8298909;28;20040;-84
2024/03/24 20:29:33;;;;;;;0.63;0.45;;;2.80;99.90;;;;;;8318500;28;20419;-85
2024/03/24 20:33:34;;;;;;;0.40;0.35;;;2.70;99.90;;;;;;8299588;28;20025;-84
2024/03/24 20:37:34;;;;;;;0.43;0.38;;;2.70;99.90;;;;;;8299495;28;20072;-85
2024/03/24 20:41:36;;;;;;;0.40;0.40;;;2.70;99.90;;;;;;8304121;28;20072;-85
2024/03/24 20:45:36;;;;;;;0.70;0.40;;;2.50;99.90;;;;;;8293845;28;20029;-85
2024/03/24 20:49:37;;;;;;;0.50;0.32;;;2.50;99.90;;;;;;8308192;28;20501;-85
2024/03/24 20:53:37;;;;;;;1.15;0.60;;;2.50;99.90;;;;;;8297199;28;20111;-85
2024/03/24 20:57:41;;;;;;;0.10;0.10;;;2.50;99.90;;;;;;8320210;28;20034;-85
2024/03/24 21:01:42;;;;;;;0.50;0.38;;;2.60;99.90;;;;;;8304792;28;20032;-85
2024/03/24 21:05:42;;;;;;;0.32;0.32;;;2.80;99.90;;;;;;8325815;28;20022;-86
2024/03/24 21:09:43;;;;;;;0.40;0.30;;;3.00;99.90;;;;;;8322605;28;20670;-84
2024/03/24 21:13:44;;;;;;;0.40;0.40;;;3.20;99.90;;;;;;8314165;28;20037;-85
2024/03/24 21:17:45;;;;;;;0.73;0.60;;;3.30;99.90;;;;;;8301439;28;20026;-85
2024/03/24 21:21:48;;;;;;;3.63;0.60;;;3.30;99.90;;;;;;8316188;28;20032;-85
2024/03/24 21:25:48;;;;;;;3.88;0.70;;;3.30;99.90;;;;;;8311114;28;20478;-84
2024/03/24 21:29:49;;;;;;;2.63;1.23;;;3.50;99.90;;;;;;8308247;28;20030;-85
2024/03/24 21:33:49;;;;;;;0.82;0.50;;;3.50;99.90;;;;;;8301516;28;20514;-83
2024/03/24 21:42:09;;;;;;;1.05;0.65;;;3.70;99.90;;;;;;8298292;28;20398;-83
2024/03/24 21:46:10;;;;;;;4.15;0.88;;;3.70;99.90;;;;;;8312685;28;20036;-84
2024/03/24 21:50:10;;;;;;;1.30;0.55;;;3.70;99.90;;;;;;8295761;28;20025;-83
2024/03/24 21:54:11;;;;;;;0.65;0.43;;;3.80;99.90;;;;;;8315530;28;20594;-85
2024/03/24 21:58:12;;;;;;;1.73;0.60;;;3.80;99.90;;;;;;8308463;28;20037;-84
2024/03/24 22:02:12;;;;;;;2.55;0.50;;;3.70;99.90;;;;;;8301402;28;20405;-84
2024/03/24 22:06:13;;;;;;;1.80;0.70;;;3.80;99.90;;;;;;8318230;28;20032;-84
2024/03/24 22:10:14;;;;;;;0.60;0.60;;;3.60;99.90;;;;;;8304305;28;20089;-82
2024/03/24 22:14:14;;;;;;;2.22;1.25;;;3.70;99.90;;;;;;8305002;28;20061;-83
2024/03/24 22:18:15;;;;;;;4.22;0.88;;;3.90;99.90;;;;;;8304694;28;20044;-83
2024/03/24 22:22:15;;;;;;;1.60;0.73;;;3.90;99.90;;;;;;8294509;28;20520;-84
2024/03/24 22:26:16;;;;;;;0.85;0.82;;;3.90;99.90;;;;;;8297583;28;20036;-84
2024/03/24 22:30:16;;;;;;;1.63;0.90;;;3.80;99.90;;;;;;8297126;28;20477;-82
2024/03/24 22:34:17;;;;;;;2.00;1.00;;;3.90;99.90;;;;;;8297296;28;20041;-83
2024/03/24 22:38:18;;;;;;;2.40;0.65;;;3.80;99.90;;;;;;8298889;28;20065;-83
2024/03/24 22:42:18;;;;;;;3.90;0.90;;;3.80;99.90;;;;;;8289959;28;20030;-82
2024/03/24 22:46:19;;;;;;;1.48;0.65;;;3.70;99.90;;;;;;8292116;28;20026;-84
2024/03/24 22:50:19;;;;;;;0.60;0.60;;;3.90;99.90;;;;;;8289764;28;20039;-84
2024/03/24 22:54:20;;;;;;;1.58;0.75;;;4.00;99.90;;;;;;8288899;28;20529;-84
2024/03/24 22:58:21;;;;;;;1.50;0.68;;;3.90;99.90;;;;;;8293441;28;20096;-83
2024/03/24 23:02:21;;;;;;;1.08;0.65;;;3.90;99.90;;;;;;8298374;28;20029;-84
2024/03/24 23:06:22;;;;;;;1.00;0.80;;;3.90;99.90;;;;;;8301035;28;20025;-84
2024/03/24 23:10:22;;;;;;;2.30;0.73;;;3.80;99.90;;;;;;8294651;28;20130;-82
2024/03/24 23:14:24;;;;;;;0.60;0.57;;;3.80;99.90;;;;;;8295279;28;20109;-83
2024/03/24 23:18:25;;;;;;;1.17;0.80;;;3.70;99.90;;;;;;8298997;28;20064;-84
2024/03/24 23:22:25;;;;;;;0.77;0.63;;;3.60;99.90;;;;;;8304963;28;20507;-83
2024/03/24 23:26:26;;;;;;;1.20;0.60;;;3.60;99.90;;;;;;8311719;28;20088;-82
2024/03/24 23:30:26;;;;;;;1.10;0.70;;;3.50;99.90;;;;;;8315106;28;20076;-83